KGCD Airport (Grant Co Rgnl/Ogilvie Field) Information

FAA: GCD - ICAO: KGCD

KGCD Airport Location

State Oregon
County Grant
City John Day
KGCD Airport is 1 miles southwest of John Day, OR.
Latitude 44-24-10.3228N
Longitude 118-58-04.3799W
Elevation 3,702ft

KGCD Airport METARs

METAR KGCD 072035Z AUTO 08006KT 10SM CLR 01/M05 A3009 RMK AO2 T00121054
Altimeter 30.09"
Temperature 1.2°C (34.2°F)
Wind 80° at 6KT
Clouds Skies are clear.
Visibility 10.0mi
Time observed: 2022-12-07T20:35:00Z

KGCD Airport Details

Status Operational
Activation December 1943
Ownership Public
Usage Public
Chart KLAMATH FALLS
ATC on-site No
Beacon schedule sunset-sunrise
Beacon color clear green

KGCD Airport Contacts

Owner GRANT COUNTY REGIONAL AIRPORT
Owner address , 201 S. HUMBOLT, STE. 280, CANYON CITY, OR 97820
Owner phone 541-575-0059
Manager LARRY RAWE
Manager address PO BOX 1285, HERMISTON, OR 97838
Manager phone 541-567-3694

KGCD Airport (Grant Co Rgnl/Ogilvie Field) Radio Frequencies

KGCD (Airport) Radio Frequencies

UNICOM 122.8
Common traffic advisory frequency (CTAF) 122.8